Time;durP1;ratioP1;P1;durP2;ratioP2;P2;SDS_P1;SDS_P2;PMS_P1;PMS_P2;Temp;Humidity;BMP_temperature;BMP_pressure;BME280_temperature;BME280_humidity;BME280_pressure;Samples;Min_cycle;Max_cycle;Signal;HPM_P1;HPM_P2
2023/10/01 00:00:07;;;;;;;5.22;4.22;;;;;;;;;;5015089;28;20220;-73
2023/10/01 00:02:34;;;;;;;5.28;4.20;;;;;;;;;;5017173;28;20204;-73
2023/10/01 00:05:03;;;;;;;4.70;4.10;;;;;;;;;;5017399;28;20196;-74
2023/10/01 00:07:30;;;;;;;6.38;4.15;;;;;;;;;;5018118;28;20204;-73
2023/10/01 00:10:01;;;;;;;4.85;4.03;;;;;;;;;;5017750;28;20219;-73
2023/10/01 00:12:29;;;;;;;5.15;3.92;;;;;;;;;;5017536;28;20197;-73
2023/10/01 00:14:57;;;;;;;4.20;3.75;;;;;;;;;;5019445;28;20207;-71
2023/10/01 00:17:24;;;;;;;5.28;4.20;;;;;;;;;;5020156;28;20231;-65
2023/10/01 00:19:51;;;;;;;6.78;4.50;;;;;;;;;;5017103;28;20563;-66
2023/10/01 00:22:18;;;;;;;5.70;3.72;;;;;;;;;;5017113;28;20215;-65
2023/10/01 00:24:46;;;;;;;4.75;3.88;;;;;;;;;;5020632;28;20208;-66
2023/10/01 00:27:14;;;;;;;6.23;3.73;;;;;;;;;;5020407;28;20246;-66
2023/10/01 00:29:41;;;;;;;5.43;4.13;;;;;;;;;;5020126;28;20207;-66
2023/10/01 00:32:10;;;;;;;5.40;4.03;;;;;;;;;;5016831;28;20200;-65
2023/10/01 00:34:37;;;;;;;5.90;4.00;;;;;;;;;;5020484;28;20199;-66
2023/10/01 00:37:04;;;;;;;5.38;4.20;;;;;;;;;;5018213;28;20205;-65
2023/10/01 00:39:31;;;;;;;5.35;4.20;;;;;;;;;;5015525;28;20201;-66
2023/10/01 00:41:58;;;;;;;7.53;4.60;;;;;;;;;;5016949;28;20208;-66
2023/10/01 00:44:25;;;;;;;5.82;4.28;;;;;;;;;;5019451;28;20208;-66
2023/10/01 00:46:52;;;;;;;4.20;3.80;;;;;;;;;;5023106;28;20201;-67
2023/10/01 00:49:22;;;;;;;5.15;4.15;;;;;;;;;;5014168;28;20291;-66
2023/10/01 00:51:51;;;;;;;4.55;3.97;;;;;;;;;;5018496;28;20227;-65
2023/10/01 00:54:18;;;;;;;5.57;4.13;;;;;;;;;;5020173;28;20266;-66
2023/10/01 00:56:46;;;;;;;5.13;3.97;;;;;;;;;;5019237;28;20216;-66
2023/10/01 00:59:14;;;;;;;7.10;4.32;;;;;;;;;;5018122;28;20211;-66
2023/10/01 01:01:41;;;;;;;5.07;4.27;;;;;;;;;;5020900;28;20220;-66
2023/10/01 01:04:17;;;;;;;6.37;4.20;;;;;;;;;;5020767;28;20204;-65
2023/10/01 01:06:47;;;;;;;7.03;4.63;;;;;;;;;;5021086;28;20266;-66
2023/10/01 01:09:15;;;;;;;6.63;4.20;;;;;;;;;;5015369;28;20208;-66
2023/10/01 01:11:42;;;;;;;5.03;4.10;;;;;;;;;;5021739;28;20197;-66
2023/10/01 01:14:11;;;;;;;4.30;3.87;;;;;;;;;;5021733;28;20207;-66
2023/10/01 01:16:40;;;;;;;5.63;4.23;;;;;;;;;;5022285;28;20250;-66
2023/10/01 01:19:09;;;;;;;4.30;3.90;;;;;;;;;;5023952;28;20303;-65
2023/10/01 01:21:42;;;;;;;4.60;4.07;;;;;;;;;;5021543;28;20239;-66
2023/10/01 01:24:10;;;;;;;6.97;4.70;;;;;;;;;;5023934;28;20295;-66
2023/10/01 01:26:41;;;;;;;5.93;4.03;;;;;;;;;;5020032;28;20235;-65
2023/10/01 01:29:18;;;;;;;5.53;4.50;;;;;;;;;;5022029;28;20205;-74
2023/10/01 01:31:46;;;;;;;4.70;3.93;;;;;;;;;;5021074;28;20205;-73
2023/10/01 01:34:14;;;;;;;4.50;4.10;;;;;;;;;;5021491;28;20303;-74
2023/10/01 01:36:42;;;;;;;6.73;4.60;;;;;;;;;;5022737;28;20204;-74
2023/10/01 01:39:26;;;;;;;6.30;4.27;;;;;;;;;;5021533;28;20256;-74
2023/10/01 01:41:54;;;;;;;4.87;3.70;;;;;;;;;;5021181;28;20224;-73
2023/10/01 01:44:23;;;;;;;5.43;4.23;;;;;;;;;;5023916;28;20223;-74
2023/10/01 01:46:59;;;;;;;4.47;4.07;;;;;;;;;;5022960;28;20212;-72
2023/10/01 01:49:27;;;;;;;4.57;4.10;;;;;;;;;;5021979;28;20204;-74
2023/10/01 01:51:59;;;;;;;4.50;3.87;;;;;;;;;;5019458;28;20202;-73
2023/10/01 01:54:29;;;;;;;6.03;4.70;;;;;;;;;;5021073;28;20237;-74
2023/10/01 01:56:56;;;;;;;4.83;4.07;;;;;;;;;;5020538;28;20208;-73
2023/10/01 01:59:27;;;;;;;5.73;3.90;;;;;;;;;;5022991;28;20204;-74
2023/10/01 02:01:55;;;;;;;5.97;4.20;;;;;;;;;;5024277;28;20232;-74
2023/10/01 02:04:22;;;;;;;5.97;4.37;;;;;;;;;;5025260;28;20204;-73
2023/10/01 02:06:51;;;;;;;4.23;3.73;;;;;;;;;;5019929;28;20314;-74
2023/10/01 02:09:20;;;;;;;7.23;4.50;;;;;;;;;;5018180;28;20208;-73
2023/10/01 02:11:50;;;;;;;5.03;4.37;;;;;;;;;;5020100;28;20204;-74
2023/10/01 02:17:13;;;;;;;5.60;4.10;;;;;;;;;;5025649;28;20286;-74
2023/10/01 02:19:40;;;;;;;4.97;4.43;;;;;;;;;;5024509;28;20208;-73
2023/10/01 02:22:08;;;;;;;4.53;4.00;;;;;;;;;;5023084;28;20222;-74
2023/10/01 02:24:44;;;;;;;4.70;4.20;;;;;;;;;;5018803;28;20204;-74
2023/10/01 02:27:14;;;;;;;5.43;4.10;;;;;;;;;;5022597;28;20251;-74
2023/10/01 02:30:11;;;;;;;4.70;4.30;;;;;;;;;;5024284;28;20204;-73
2023/10/01 02:32:34;;;;;;;4.60;3.97;;;;;;;;;;5018027;28;20213;-74
2023/10/01 02:35:33;;;;;;;5.23;3.77;;;;;;;;;;5019591;28;20205;-73
2023/10/01 02:37:49;;;;;;;5.37;3.80;;;;;;;;;;5023734;28;20211;-67
2023/10/01 02:40:18;;;;;;;5.03;4.13;;;;;;;;;;5021563;28;20270;-66
2023/10/01 02:42:49;;;;;;;6.40;4.27;;;;;;;;;;5019536;28;20204;-66
2023/10/01 02:48:17;;;;;;;5.00;4.03;;;;;;;;;;5121880;27;20540;-66
2023/10/01 02:50:45;;;;;;;5.73;4.30;;;;;;;;;;5119419;27;20204;-67
2023/10/01 02:53:13;;;;;;;6.73;4.67;;;;;;;;;;5118195;27;20192;-66
2023/10/01 02:55:44;;;;;;;8.40;5.10;;;;;;;;;;5121706;27;20207;-66
2023/10/01 02:58:18;;;;;;;5.67;4.47;;;;;;;;;;5121170;27;20272;-66
2023/10/01 03:00:45;;;;;;;5.53;4.50;;;;;;;;;;5114130;27;20196;-66
2023/10/01 03:03:17;;;;;;;5.00;4.50;;;;;;;;;;5117324;27;20224;-66
2023/10/01 03:05:46;;;;;;;4.93;4.33;;;;;;;;;;5117751;27;20272;-66
2023/10/01 03:08:40;;;;;;;5.23;4.10;;;;;;;;;;5120429;27;20205;-66
2023/10/01 03:11:06;;;;;;;5.40;4.67;;;;;;;;;;5116137;27;20205;-66
2023/10/01 03:13:32;;;;;;;5.07;4.57;;;;;;;;;;5113124;27;20259;-66
2023/10/01 03:18:55;;;;;;;5.83;4.50;;;;;;;;;;5075742;27;20198;-66
2023/10/01 03:24:03;;;;;;;5.93;4.60;;;;;;;;;;5113691;27;20201;-66
2023/10/01 03:26:33;;;;;;;6.50;4.93;;;;;;;;;;5114553;27;20239;-66
2023/10/01 03:29:17;;;;;;;5.57;4.80;;;;;;;;;;5112725;27;20216;-66
2023/10/01 03:31:46;;;;;;;6.33;4.57;;;;;;;;;;5114609;27;20230;-66
2023/10/01 03:34:28;;;;;;;5.80;4.57;;;;;;;;;;5112794;27;20439;-66
2023/10/01 03:36:58;;;;;;;6.47;4.87;;;;;;;;;;5115611;27;20256;-67
2023/10/01 03:39:26;;;;;;;6.97;4.53;;;;;;;;;;5113881;27;20204;-66
2023/10/01 03:42:10;;;;;;;7.53;4.60;;;;;;;;;;5120034;27;20204;-66
2023/10/01 03:44:59;;;;;;;6.47;4.80;;;;;;;;;;5113292;27;20211;-66
2023/10/01 03:47:27;;;;;;;5.90;4.17;;;;;;;;;;5114705;27;20391;-72
2023/10/01 03:49:55;;;;;;;7.13;4.60;;;;;;;;;;5115374;27;20200;-66
2023/10/01 03:52:22;;;;;;;6.20;4.27;;;;;;;;;;5114271;27;20229;-66
2023/10/01 03:54:59;;;;;;;5.60;4.33;;;;;;;;;;5114536;27;20234;-66
2023/10/01 03:57:27;;;;;;;6.33;4.57;;;;;;;;;;5115143;27;20223;-66
2023/10/01 03:59:56;;;;;;;5.80;4.53;;;;;;;;;;5098907;27;20193;-66
2023/10/01 04:02:46;;;;;;;5.43;4.60;;;;;;;;;;5101804;27;20208;-66
2023/10/01 04:05:30;;;;;;;5.10;4.60;;;;;;;;;;5098931;27;20202;-66
2023/10/01 04:08:04;;;;;;;5.40;4.70;;;;;;;;;;5102657;27;20222;-67
2023/10/01 04:10:32;;;;;;;5.00;4.50;;;;;;;;;;5101964;27;20213;-66
2023/10/01 04:13:01;;;;;;;6.13;4.67;;;;;;;;;;5103892;27;20217;-66
2023/10/01 04:15:29;;;;;;;6.10;4.90;;;;;;;;;;5100807;27;20236;-66
2023/10/01 04:20:48;;;;;;;6.47;4.70;;;;;;;;;;5095622;27;20206;-66
2023/10/01 04:23:25;;;;;;;5.07;4.57;;;;;;;;;;5101159;27;20335;-66
2023/10/01 04:25:52;;;;;;;5.00;4.50;;;;;;;;;;5099819;27;20202;-66
2023/10/01 04:28:19;;;;;;;6.23;4.80;;;;;;;;;;5102659;27;20275;-66
2023/10/01 04:30:51;;;;;;;6.13;4.83;;;;;;;;;;5098184;27;20201;-66
2023/10/01 04:33:18;;;;;;;6.13;4.93;;;;;;;;;;5099650;27;20205;-66
2023/10/01 04:35:55;;;;;;;5.63;4.40;;;;;;;;;;5101986;27;20262;-66
2023/10/01 04:38:22;;;;;;;5.97;4.70;;;;;;;;;;5102438;27;20193;-66
2023/10/01 04:40:50;;;;;;;6.13;4.67;;;;;;;;;;5101485;28;20209;-66
2023/10/01 04:43:19;;;;;;;4.90;4.40;;;;;;;;;;5104057;27;20197;-66
2023/10/01 04:45:46;;;;;;;5.73;4.93;;;;;;;;;;5102755;28;20299;-66
2023/10/01 04:48:22;;;;;;;5.40;4.70;;;;;;;;;;5100045;27;20210;-67
2023/10/01 04:50:51;;;;;;;5.80;5.30;;;;;;;;;;5099237;28;20279;-66
2023/10/01 04:53:20;;;;;;;5.40;4.90;;;;;;;;;;5099762;27;20205;-66
2023/10/01 04:55:57;;;;;;;5.33;4.57;;;;;;;;;;5099977;27;20361;-66
2023/10/01 04:58:26;;;;;;;6.37;4.97;;;;;;;;;;5096215;28;20205;-66
2023/10/01 05:00:54;;;;;;;5.90;4.53;;;;;;;;;;5103352;27;20233;-66
2023/10/01 05:03:38;;;;;;;5.40;4.70;;;;;;;;;;5103198;27;20206;-67
2023/10/01 05:06:06;;;;;;;5.93;5.30;;;;;;;;;;5095755;28;20202;-66
2023/10/01 05:08:38;;;;;;;6.70;5.20;;;;;;;;;;5099799;28;20225;-66
2023/10/01 05:11:10;;;;;;;6.33;5.20;;;;;;;;;;5095276;28;20641;-66
2023/10/01 05:13:39;;;;;;;5.77;5.13;;;;;;;;;;5097739;28;20206;-67
2023/10/01 05:16:07;;;;;;;5.80;4.57;;;;;;;;;;5099178;28;20234;-66
2023/10/01 05:18:34;;;;;;;5.20;4.70;;;;;;;;;;5099626;28;20286;-66
2023/10/01 05:21:04;;;;;;;6.60;4.93;;;;;;;;;;5096258;28;20205;-66
2023/10/01 05:23:32;;;;;;;6.03;5.00;;;;;;;;;;5097007;28;20202;-66
2023/10/01 05:26:00;;;;;;;5.70;4.53;;;;;;;;;;5096190;28;20296;-67
2023/10/01 05:28:35;;;;;;;5.57;4.83;;;;;;;;;;5102828;28;20234;-66
2023/10/01 05:31:06;;;;;;;6.23;4.83;;;;;;;;;;5097259;28;20259;-66
2023/10/01 05:33:33;;;;;;;5.77;4.57;;;;;;;;;;5097954;28;20197;-66
2023/10/01 05:36:04;;;;;;;5.70;4.53;;;;;;;;;;5101890;28;20201;-68
2023/10/01 05:38:34;;;;;;;6.83;4.53;;;;;;;;;;5101197;28;20205;-67
2023/10/01 05:41:03;;;;;;;6.13;4.70;;;;;;;;;;5097058;28;20213;-67
2023/10/01 05:43:35;;;;;;;5.70;4.60;;;;;;;;;;5099237;28;20297;-67
2023/10/01 05:46:02;;;;;;;5.23;4.43;;;;;;;;;;5098260;28;20233;-68
2023/10/01 05:48:32;;;;;;;6.77;4.90;;;;;;;;;;5096625;28;20233;-67
2023/10/01 05:51:00;;;;;;;5.90;4.70;;;;;;;;;;5092269;28;20205;-67
2023/10/01 05:53:30;;;;;;;6.37;4.83;;;;;;;;;;5101895;27;20205;-67
2023/10/01 05:56:04;;;;;;;5.13;4.63;;;;;;;;;;5096091;28;20276;-67
2023/10/01 05:58:31;;;;;;;7.20;5.03;;;;;;;;;;5099554;28;20194;-67
2023/10/01 06:01:05;;;;;;;5.57;4.90;;;;;;;;;;5094686;27;20212;-66
2023/10/01 06:03:32;;;;;;;6.33;4.60;;;;;;;;;;5099932;28;20212;-68
2023/10/01 06:06:06;;;;;;;6.40;4.70;;;;;;;;;;5093304;28;20206;-67
2023/10/01 06:08:34;;;;;;;5.80;4.70;;;;;;;;;;5093989;28;20231;-73
2023/10/01 06:11:06;;;;;;;6.10;5.13;;;;;;;;;;5092958;28;20296;-74
2023/10/01 06:13:35;;;;;;;5.63;5.03;;;;;;;;;;5097212;28;20248;-73
2023/10/01 06:16:11;;;;;;;7.00;5.10;;;;;;;;;;5096040;28;20233;-74
2023/10/01 06:18:41;;;;;;;5.80;4.80;;;;;;;;;;5097880;28;20190;-74
2023/10/01 06:21:09;;;;;;;5.93;5.30;;;;;;;;;;5098340;28;20260;-74
2023/10/01 06:23:49;;;;;;;5.87;4.97;;;;;;;;;;5096584;27;20206;-73
2023/10/01 06:26:18;;;;;;;7.20;5.23;;;;;;;;;;5103066;27;20193;-72
2023/10/01 06:28:45;;;;;;;5.80;4.67;;;;;;;;;;5099187;27;20231;-74
2023/10/01 06:31:12;;;;;;;6.17;5.20;;;;;;;;;;5096980;27;20208;-74
2023/10/01 06:33:39;;;;;;;7.37;5.23;;;;;;;;;;5098235;28;20208;-74
2023/10/01 06:36:21;;;;;;;5.73;4.87;;;;;;;;;;5097138;28;20201;-75
2023/10/01 06:38:48;;;;;;;5.80;4.90;;;;;;;;;;5099811;28;20516;-75
2023/10/01 06:41:18;;;;;;;7.47;5.43;;;;;;;;;;5100906;28;20209;-75
2023/10/01 06:43:54;;;;;;;5.90;4.97;;;;;;;;;;5099924;28;20206;-75
2023/10/01 06:46:22;;;;;;;5.33;4.83;;;;;;;;;;5100598;28;20235;-74
2023/10/01 06:48:50;;;;;;;5.20;4.70;;;;;;;;;;5096908;28;20261;-73
2023/10/01 06:51:19;;;;;;;5.97;5.27;;;;;;;;;;5098858;28;20201;-75
2023/10/01 06:53:47;;;;;;;5.20;4.70;;;;;;;;;;5101605;28;20285;-74
2023/10/01 06:56:18;;;;;;;6.10;4.73;;;;;;;;;;5097023;28;20206;-73
2023/10/01 06:59:12;;;;;;;6.30;5.53;;;;;;;;;;5096070;28;20293;-74
2023/10/01 07:01:35;;;;;;;6.93;5.73;;;;;;;;;;5102008;28;20277;-73
2023/10/01 07:04:03;;;;;;;5.80;5.17;;;;;;;;;;5090945;28;20205;-74
2023/10/01 07:06:30;;;;;;;5.63;4.93;;;;;;;;;;5095379;28;20201;-70
2023/10/01 07:09:00;;;;;;;5.10;4.43;;;;;;;;;;5096810;28;20352;-74
2023/10/01 07:11:28;;;;;;;5.17;4.67;;;;;;;;;;5100696;28;20210;-74
2023/10/01 07:13:58;;;;;;;5.30;4.43;;;;;;;;;;5096142;28;20239;-74
2023/10/01 07:16:36;;;;;;;7.23;4.37;;;;;;;;;;5093871;28;20206;-73
2023/10/01 07:19:05;;;;;;;5.83;3.93;;;;;;;;;;5097695;28;20206;-67
2023/10/01 07:21:33;;;;;;;4.17;3.77;;;;;;;;;;5090745;28;20202;-67
2023/10/01 07:24:00;;;;;;;6.80;5.27;;;;;;;;;;5098177;28;20206;-67
2023/10/01 07:26:28;;;;;;;6.13;4.73;;;;;;;;;;5096241;28;20201;-68
2023/10/01 07:28:57;;;;;;;5.13;4.63;;;;;;;;;;5098066;28;20228;-67
2023/10/01 07:31:25;;;;;;;5.40;4.50;;;;;;;;;;5099015;28;20208;-67
2023/10/01 07:33:54;;;;;;;4.23;3.87;;;;;;;;;;5096910;28;20209;-67
2023/10/01 07:36:23;;;;;;;4.53;4.13;;;;;;;;;;5101698;27;20213;-67
2023/10/01 07:38:52;;;;;;;5.17;4.27;;;;;;;;;;5099111;28;20251;-67
2023/10/01 07:41:20;;;;;;;4.70;4.30;;;;;;;;;;5100349;28;20205;-67
2023/10/01 07:43:49;;;;;;;4.77;4.33;;;;;;;;;;5096761;28;20190;-66
2023/10/01 07:46:19;;;;;;;5.30;4.63;;;;;;;;;;5099044;27;20244;-67
2023/10/01 07:48:49;;;;;;;4.83;4.33;;;;;;;;;;5099122;27;20310;-66
2023/10/01 07:51:26;;;;;;;6.03;4.47;;;;;;;;;;5097993;28;20208;-67
2023/10/01 07:53:53;;;;;;;5.10;4.63;;;;;;;;;;5099237;27;20198;-66
2023/10/01 07:56:22;;;;;;;6.17;5.00;;;;;;;;;;5098932;28;20228;-67
2023/10/01 07:58:56;;;;;;;5.83;4.90;;;;;;;;;;5103286;27;20248;-66
2023/10/01 08:04:50;;;;;;;5.70;4.63;;;;;;;;;;5101751;27;20269;-67
2023/10/01 08:07:05;;;;;;;4.57;4.18;;;;;;;;;;5098103;27;20197;-67
2023/10/01 08:09:33;;;;;;;5.00;3.93;;;;;;;;;;5099949;27;20222;-66
2023/10/01 08:12:05;;;;;;;6.47;4.60;;;;;;;;;;5100224;28;20210;-67
2023/10/01 08:14:33;;;;;;;4.50;3.97;;;;;;;;;;5102020;27;20194;-66
2023/10/01 08:17:00;;;;;;;5.90;3.72;;;;;;;;;;5096126;27;20216;-66
2023/10/01 08:22:43;;;;;;;6.45;3.83;;;;;;;;;;5126803;27;20713;-90
2023/10/01 08:25:09;;;;;;;5.70;4.60;;;;;;;;;;5126764;27;20235;-91
2023/10/01 08:28:09;;;;;;;6.80;4.40;;;;;;;;;;5126795;27;20196;-91
2023/10/01 08:30:38;;;;;;;5.70;3.60;;;;;;;;;;5127923;28;20318;-91
2023/10/01 08:33:18;;;;;;;5.32;4.18;;;;;;;;;;5130732;28;20197;-91
2023/10/01 08:35:56;;;;;;;4.25;3.70;;;;;;;;;;5128084;27;20250;-92
2023/10/01 08:38:26;;;;;;;5.22;3.95;;;;;;;;;;5123941;28;20208;-88
2023/10/01 08:40:54;;;;;;;5.15;4.07;;;;;;;;;;5125487;27;20219;-94
2023/10/01 08:43:22;;;;;;;4.32;3.65;;;;;;;;;;5129513;28;20208;-89
2023/10/01 08:45:52;;;;;;;5.10;3.67;;;;;;;;;;5127623;27;20279;-90
2023/10/01 08:48:19;;;;;;;6.70;4.00;;;;;;;;;;5125940;28;20189;-94
2023/10/01 08:50:47;;;;;;;6.88;4.10;;;;;;;;;;5129974;28;20197;-92
2023/10/01 08:53:15;;;;;;;5.95;4.15;;;;;;;;;;5127241;28;20205;-93
2023/10/01 08:58:27;;;;;;;4.63;3.72;;;;;;;;;;5127070;27;20197;-96
2023/10/01 09:01:10;;;;;;;5.85;4.18;;;;;;;;;;5128369;27;20223;-92
2023/10/01 09:03:38;;;;;;;5.90;4.75;;;;;;;;;;5124469;27;20208;-93
2023/10/01 09:06:08;;;;;;;7.30;5.43;;;;;;;;;;5129141;27;20216;-90
2023/10/01 09:08:43;;;;;;;8.50;5.63;;;;;;;;;;5127351;27;20292;-91
2023/10/01 09:11:13;;;;;;;8.20;5.68;;;;;;;;;;5123969;28;20215;-93
2023/10/01 09:13:47;;;;;;;8.07;5.30;;;;;;;;;;5119023;27;20288;-89
2023/10/01 09:16:16;;;;;;;6.22;4.82;;;;;;;;;;5121066;27;20219;-91
2023/10/01 09:19:03;;;;;;;8.63;4.97;;;;;;;;;;5125323;27;20216;-92
2023/10/01 09:21:38;;;;;;;8.70;5.15;;;;;;;;;;5122010;27;20224;-93
2023/10/01 09:24:31;;;;;;;6.22;4.68;;;;;;;;;;5127934;27;20204;-94
2023/10/01 09:27:08;;;;;;;7.63;5.18;;;;;;;;;;5126564;28;20205;-92
2023/10/01 09:29:43;;;;;;;6.22;5.20;;;;;;;;;;5122638;27;20249;-90
2023/10/01 09:32:11;;;;;;;6.63;5.53;;;;;;;;;;5120195;28;20220;-91
2023/10/01 09:34:46;;;;;;;8.23;5.35;;;;;;;;;;5112244;28;20203;-91
2023/10/01 09:37:17;;;;;;;9.63;5.15;;;;;;;;;;5109770;28;20200;-91
2023/10/01 09:39:45;;;;;;;7.18;5.32;;;;;;;;;;5111556;28;20324;-90
2023/10/01 09:42:28;;;;;;;7.68;5.70;;;;;;;;;;5114080;27;20201;-92
2023/10/01 09:45:09;;;;;;;8.38;4.93;;;;;;;;;;5115190;28;20213;-92
2023/10/01 09:47:36;;;;;;;8.20;5.80;;;;;;;;;;5111799;28;20224;-92
2023/10/01 09:50:05;;;;;;;8.55;6.20;;;;;;;;;;5114508;28;20198;-91
2023/10/01 09:52:48;;;;;;;9.00;5.72;;;;;;;;;;5114557;28;20201;-91
2023/10/01 09:55:26;;;;;;;8.20;5.78;;;;;;;;;;5109557;28;20257;-92
2023/10/01 09:57:55;;;;;;;8.15;5.97;;;;;;;;;;5114801;28;20281;-92
2023/10/01 10:00:39;;;;;;;7.95;5.55;;;;;;;;;;5113454;28;20216;-91
2023/10/01 10:03:09;;;;;;;8.63;6.03;;;;;;;;;;5114546;27;20193;-91
2023/10/01 10:05:39;;;;;;;7.88;6.18;;;;;;;;;;5121266;27;20247;-90
2023/10/01 10:08:15;;;;;;;10.60;6.10;;;;;;;;;;5115016;28;20198;-90
2023/10/01 10:10:48;;;;;;;7.85;6.22;;;;;;;;;;5114628;28;20207;-91
2023/10/01 10:13:36;;;;;;;8.05;6.78;;;;;;;;;;5114037;28;20201;-90
2023/10/01 10:16:29;;;;;;;7.40;6.00;;;;;;;;;;5103836;28;20281;-91
2023/10/01 10:19:20;;;;;;;8.32;5.90;;;;;;;;;;5113655;27;20193;-91
2023/10/01 10:22:05;;;;;;;9.68;6.30;;;;;;;;;;5099942;28;20241;-91
2023/10/01 10:24:34;;;;;;;9.50;6.50;;;;;;;;;;5104872;28;20198;-91
2023/10/01 10:27:07;;;;;;;10.70;6.32;;;;;;;;;;5112481;28;20288;-91
2023/10/01 10:29:57;;;;;;;10.23;6.97;;;;;;;;;;5107931;28;20197;-91
2023/10/01 10:32:26;;;;;;;8.77;6.30;;;;;;;;;;5111657;27;20197;-90
2023/10/01 10:35:23;;;;;;;9.15;6.63;;;;;;;;;;5105710;27;20212;-91
2023/10/01 10:37:53;;;;;;;8.70;6.25;;;;;;;;;;5023475;28;20216;-90
2023/10/01 10:40:22;;;;;;;7.35;6.22;;;;;;;;;;5095102;28;20205;-90
2023/10/01 10:43:07;;;;;;;10.13;6.53;;;;;;;;;;5105986;28;20243;-91
2023/10/01 10:45:42;;;;;;;9.23;6.53;;;;;;;;;;5108269;28;20201;-90
2023/10/01 10:48:14;;;;;;;8.10;6.13;;;;;;;;;;5109866;28;20201;-91
2023/10/01 10:50:48;;;;;;;9.25;6.75;;;;;;;;;;5109176;28;20201;-91
2023/10/01 10:53:15;;;;;;;10.88;7.38;;;;;;;;;;5109616;28;20208;-90
2023/10/01 10:55:52;;;;;;;10.50;7.57;;;;;;;;;;5111996;28;20204;-90
2023/10/01 10:58:19;;;;;;;9.90;7.20;;;;;;;;;;5110656;28;20201;-90
2023/10/01 11:00:47;;;;;;;9.57;7.05;;;;;;;;;;5114004;28;20209;-91
2023/10/01 11:03:17;;;;;;;10.40;7.30;;;;;;;;;;5108325;28;20198;-87
2023/10/01 11:05:53;;;;;;;10.40;6.80;;;;;;;;;;5113489;28;20197;-90
2023/10/01 11:08:26;;;;;;;10.90;7.28;;;;;;;;;;5112800;28;20276;-89
2023/10/01 11:10:55;;;;;;;9.48;7.15;;;;;;;;;;5112570;28;20247;-90
2023/10/01 11:13:37;;;;;;;10.80;7.40;;;;;;;;;;5111325;28;20197;-89
2023/10/01 11:16:14;;;;;;;9.75;7.20;;;;;;;;;;5109361;28;20198;-90
2023/10/01 11:18:44;;;;;;;9.25;6.88;;;;;;;;;;5106435;28;20215;-91
2023/10/01 11:21:20;;;;;;;9.90;6.97;;;;;;;;;;5110314;28;20230;-90
2023/10/01 11:23:49;;;;;;;9.13;6.50;;;;;;;;;;5111687;28;20212;-92
2023/10/01 11:26:27;;;;;;;10.93;7.72;;;;;;;;;;5110751;27;20213;-91
2023/10/01 11:28:57;;;;;;;12.18;7.78;;;;;;;;;;5110401;28;20216;-90
2023/10/01 11:31:25;;;;;;;9.88;7.40;;;;;;;;;;5103562;28;20220;-92
2023/10/01 11:34:04;;;;;;;11.60;7.50;;;;;;;;;;5109432;28;20201;-89
2023/10/01 11:36:36;;;;;;;11.05;7.88;;;;;;;;;;5106128;28;20197;-90
2023/10/01 11:39:04;;;;;;;9.57;7.00;;;;;;;;;;5107871;28;20212;-92
2023/10/01 11:41:41;;;;;;;10.40;7.82;;;;;;;;;;5107170;28;20239;-89
2023/10/01 11:44:16;;;;;;;9.68;7.20;;;;;;;;;;5109796;27;20197;-90
2023/10/01 11:49:39;;;;;;;11.77;8.27;;;;;;;;;;5061514;27;20648;-63
2023/10/01 11:52:21;;;;;;;10.75;7.35;;;;;;;;;;5057484;28;20192;-63
2023/10/01 11:54:52;;;;;;;9.32;7.05;;;;;;;;;;5054923;28;20199;-62
2023/10/01 11:57:23;;;;;;;10.05;7.43;;;;;;;;;;5057524;28;20203;-63
2023/10/01 11:59:54;;;;;;;9.75;7.22;;;;;;;;;;5057426;28;20198;-63
2023/10/01 12:02:25;;;;;;;12.85;7.60;;;;;;;;;;5052428;28;20207;-62
2023/10/01 12:04:57;;;;;;;10.75;7.40;;;;;;;;;;5051124;28;20191;-63
2023/10/01 12:07:26;;;;;;;10.93;7.25;;;;;;;;;;5053709;28;20207;-63
2023/10/01 12:09:55;;;;;;;10.95;7.75;;;;;;;;;;5057156;28;20210;-62
2023/10/01 12:12:25;;;;;;;13.25;7.78;;;;;;;;;;5061926;28;20198;-62
2023/10/01 12:14:55;;;;;;;9.48;7.07;;;;;;;;;;5055011;28;20287;-62
2023/10/01 12:17:31;;;;;;;10.75;7.20;;;;;;;;;;5054698;28;20188;-62
2023/10/01 12:20:00;;;;;;;11.85;6.90;;;;;;;;;;5058368;28;20198;-63
2023/10/01 12:22:28;;;;;;;10.48;6.85;;;;;;;;;;5054699;28;20212;-62
2023/10/01 12:24:58;;;;;;;11.73;7.20;;;;;;;;;;5053816;28;20206;-62
2023/10/01 12:27:40;;;;;;;11.82;7.10;;;;;;;;;;5056335;28;20209;-62
2023/10/01 12:30:10;;;;;;;9.63;7.18;;;;;;;;;;5061292;28;20289;-63
2023/10/01 12:32:42;;;;;;;12.32;6.90;;;;;;;;;;5060957;28;20243;-62
2023/10/01 12:35:27;;;;;;;11.30;7.68;;;;;;;;;;5048377;28;20212;-62
2023/10/01 12:38:05;;;;;;;9.23;7.40;;;;;;;;;;5055123;28;20213;-62
2023/10/01 12:40:34;;;;;;;9.85;6.93;;;;;;;;;;5054672;28;20211;-62
2023/10/01 12:43:01;;;;;;;9.13;7.15;;;;;;;;;;5060458;28;20280;-62
2023/10/01 12:45:28;;;;;;;10.00;7.47;;;;;;;;;;5056442;28;20213;-62
2023/10/01 12:47:55;;;;;;;12.52;7.47;;;;;;;;;;5054886;28;20524;-62
2023/10/01 12:50:26;;;;;;;10.80;6.97;;;;;;;;;;5058948;28;20298;-62
2023/10/01 12:53:19;;;;;;;8.90;7.00;;;;;;;;;;5055348;28;20195;-62
2023/10/01 12:55:51;;;;;;;9.85;7.20;;;;;;;;;;5059872;28;20215;-62
2023/10/01 12:58:18;;;;;;;11.52;7.72;;;;;;;;;;5057000;28;20300;-62
2023/10/01 13:00:45;;;;;;;11.82;7.43;;;;;;;;;;5048541;28;20211;-63
2023/10/01 13:03:16;;;;;;;12.43;7.22;;;;;;;;;;5046924;28;20200;-63
2023/10/01 13:05:45;;;;;;;9.57;7.60;;;;;;;;;;5043268;28;20200;-63
2023/10/01 13:08:27;;;;;;;10.20;7.50;;;;;;;;;;5045425;28;20223;-63
2023/10/01 13:10:53;;;;;;;9.25;7.18;;;;;;;;;;5043382;28;20206;-62
2023/10/01 13:13:29;;;;;;;11.02;7.15;;;;;;;;;;5041377;28;20226;-62
2023/10/01 13:15:56;;;;;;;10.77;7.15;;;;;;;;;;5043996;28;20234;-62
2023/10/01 13:18:28;;;;;;;10.10;7.40;;;;;;;;;;5046667;28;20204;-62
2023/10/01 13:21:06;;;;;;;12.63;8.10;;;;;;;;;;5040803;28;20192;-62
2023/10/01 13:23:41;;;;;;;8.90;7.25;;;;;;;;;;5039600;28;20204;-63
2023/10/01 13:26:14;;;;;;;8.73;7.05;;;;;;;;;;5041058;28;20294;-64
2023/10/01 13:28:46;;;;;;;10.13;7.20;;;;;;;;;;5043763;28;20234;-63
2023/10/01 13:31:35;;;;;;;10.93;7.22;;;;;;;;;;5046415;28;20280;-63
2023/10/01 13:34:09;;;;;;;9.85;6.97;;;;;;;;;;5041390;28;20207;-64
2023/10/01 13:36:50;;;;;;;11.32;8.00;;;;;;;;;;5039322;28;20207;-64
2023/10/01 13:39:25;;;;;;;9.43;6.88;;;;;;;;;;5033370;28;20211;-62
2023/10/01 14:09:48;;;;;;;11.38;8.40;;;;;;;;;;5041623;28;20294;-62
2023/10/01 14:12:16;;;;;;;13.68;8.18;;;;;;;;;;5031864;28;20292;-62
2023/10/01 14:15:03;;;;;;;10.68;8.38;;;;;;;;;;5038248;28;20211;-62
2023/10/01 14:17:30;;;;;;;11.20;7.28;;;;;;;;;;5047114;28;20207;-63
2023/10/01 14:19:57;;;;;;;9.45;7.18;;;;;;;;;;5043275;28;20191;-63
2023/10/01 14:22:24;;;;;;;12.82;8.40;;;;;;;;;;5037775;28;20208;-62
2023/10/01 14:24:54;;;;;;;13.38;8.15;;;;;;;;;;5042520;28;20226;-63
2023/10/01 14:27:29;;;;;;;12.27;8.60;;;;;;;;;;5039027;28;20215;-62
2023/10/01 14:30:24;;;;;;;10.25;8.23;;;;;;;;;;5041046;28;20230;-63
2023/10/01 14:32:51;;;;;;;11.15;8.02;;;;;;;;;;5045416;28;20290;-69
2023/10/01 14:35:19;;;;;;;9.80;7.57;;;;;;;;;;5039017;28;20211;-62
2023/10/01 14:37:54;;;;;;;10.65;7.65;;;;;;;;;;5040077;28;20218;-62
2023/10/01 14:40:26;;;;;;;12.55;8.43;;;;;;;;;;5048907;28;20199;-62
2023/10/01 14:42:59;;;;;;;11.73;8.13;;;;;;;;;;5041301;28;20215;-62
2023/10/01 14:45:33;;;;;;;11.65;7.97;;;;;;;;;;5040821;28;20294;-62
2023/10/01 14:48:06;;;;;;;11.07;8.27;;;;;;;;;;5039413;28;20265;-62
2023/10/01 14:50:39;;;;;;;11.35;8.48;;;;;;;;;;5041978;28;20219;-63
2023/10/01 14:53:07;;;;;;;11.35;8.90;;;;;;;;;;5037457;28;20208;-62
2023/10/01 14:55:41;;;;;;;11.45;7.95;;;;;;;;;;5035983;28;20212;-62
2023/10/01 14:58:12;;;;;;;11.40;8.40;;;;;;;;;;5041345;28;20204;-62
2023/10/01 15:00:49;;;;;;;10.95;8.48;;;;;;;;;;5042363;28;20200;-62
2023/10/01 15:03:16;;;;;;;10.65;8.35;;;;;;;;;;5038634;28;20204;-63
2023/10/01 15:05:43;;;;;;;11.25;8.85;;;;;;;;;;5036545;28;20215;-62
2023/10/01 15:08:11;;;;;;;13.70;9.13;;;;;;;;;;5033187;28;20204;-64
2023/10/01 15:10:49;;;;;;;12.18;8.55;;;;;;;;;;5032447;28;20204;-62
2023/10/01 15:13:16;;;;;;;10.50;8.32;;;;;;;;;;5038635;28;20208;-63
2023/10/01 15:15:44;;;;;;;9.85;8.02;;;;;;;;;;5043234;28;20203;-62
2023/10/01 15:18:17;;;;;;;10.60;8.40;;;;;;;;;;5044478;28;20209;-63
2023/10/01 15:20:49;;;;;;;14.55;9.13;;;;;;;;;;5042751;28;20204;-63
2023/10/01 15:23:17;;;;;;;12.02;8.23;;;;;;;;;;5042099;28;20318;-64
2023/10/01 15:25:45;;;;;;;11.88;8.55;;;;;;;;;;5041602;28;20203;-62
2023/10/01 15:28:15;;;;;;;11.25;8.40;;;;;;;;;;5041120;28;20196;-63
2023/10/01 15:30:45;;;;;;;12.85;8.90;;;;;;;;;;5042510;28;20208;-63
2023/10/01 15:33:16;;;;;;;11.70;8.70;;;;;;;;;;5038136;28;20203;-62
2023/10/01 15:35:48;;;;;;;11.30;8.48;;;;;;;;;;5041292;28;20216;-62
2023/10/01 15:38:26;;;;;;;11.02;8.80;;;;;;;;;;5044522;28;20302;-64
2023/10/01 15:40:55;;;;;;;11.48;8.90;;;;;;;;;;5044448;28;20203;-63
2023/10/01 15:43:22;;;;;;;11.88;8.75;;;;;;;;;;5043505;28;20203;-62
2023/10/01 15:45:49;;;;;;;10.50;8.30;;;;;;;;;;5037529;28;20204;-64
2023/10/01 15:48:17;;;;;;;10.75;8.27;;;;;;;;;;5041911;28;20233;-62
2023/10/01 15:50:46;;;;;;;12.40;8.63;;;;;;;;;;5037885;28;20211;-63
2023/10/01 15:53:21;;;;;;;11.70;8.27;;;;;;;;;;5043949;28;20208;-62
2023/10/01 15:55:59;;;;;;;12.15;8.57;;;;;;;;;;5041648;28;20272;-63
2023/10/01 15:58:28;;;;;;;13.13;8.73;;;;;;;;;;5036249;28;20208;-64
2023/10/01 16:00:55;;;;;;;11.35;8.80;;;;;;;;;;5037868;28;20279;-63